Time,TemperatureF,DewpointF,PressureIn,WindDirection,WindDirectionDegrees,WindSpeedMPH,WindSpeedGustMPH,Humidity,HourlyPrecipIn,Conditions,Clouds,dailyrainin,SolarRadiationWatts/m^2,SoftwareType,DateUTC
2013-05-26 00:01:00,51.0,-4.0,-100.00,SW,215,4.0,7.0,10,0.00,,,0.00,0.000000,,2013-05-26 07:01:00,
2013-05-26 01:01:00,43.0,-4.0,-100.00,South,188,0.0,9.0,13,0.00,,,-99.99,0.000000,,2013-05-26 08:01:00,
2013-05-26 01:53:00,45.0,-3.0,-100.00,South,184,0.0,5.0,13,0.00,,,0.00,0.000000,,2013-05-26 08:53:00,
2013-05-26 02:01:00,45.0,-3.0,-100.00,South,184,0.0,5.0,13,0.00,,,0.00,0.000000,,2013-05-26 09:01:00,
2013-05-26 02:53:00,45.0,-1.0,-100.00,West,263,1.0,5.0,14,0.00,,,0.00,0.000000,,2013-05-26 09:53:00,
2013-05-26 03:02:00,45.0,-1.0,-100.00,West,263,1.0,5.0,14,0.00,,,0.00,0.000000,,2013-05-26 10:02:00,
2013-05-26 03:52:00,40.0,2.0,-100.00,ESE,109,0.0,5.0,20,0.00,,,0.00,0.000000,,2013-05-26 10:52:00,
2013-05-26 04:03:00,40.0,2.0,-100.00,ESE,109,0.0,5.0,20,0.00,,,0.00,0.000000,,2013-05-26 11:03:00,
2013-05-26 04:52:00,39.0,9.0,-100.00,NNE,32,0.0,6.0,28,0.00,,,0.00,0.000000,,2013-05-26 11:52:00,
2013-05-26 05:01:00,39.0,9.0,-100.00,NNE,32,0.0,6.0,28,0.00,,,0.00,0.000000,,2013-05-26 12:01:00,
2013-05-26 05:11:00,39.0,9.0,-100.00,NNE,32,0.0,6.0,28,0.00,,,0.00,0.000000,,2013-05-26 12:11:00,
2013-05-26 05:21:00,39.0,9.0,-100.00,NNE,32,0.0,6.0,28,0.00,,,0.00,0.000000,,2013-05-26 12:21:00,
2013-05-26 05:31:00,39.0,9.0,-100.00,NNE,32,0.0,6.0,28,0.00,,,0.00,0.000000,,2013-05-26 12:31:00,
2013-05-26 05:52:00,34.0,12.0,-100.00,NE,42,0.0,4.0,40,0.00,,,0.00,0.000000,,2013-05-26 12:52:00,
2013-05-26 06:02:00,34.0,12.0,-100.00,NE,42,0.0,4.0,40,0.00,,,0.00,0.000000,,2013-05-26 13:02:00,
2013-05-26 06:52:00,38.0,19.0,-100.00,East,85,0.0,0.0,46,-99.99,,,0.00,17.000000,,2013-05-26 13:52:00,
2013-05-26 07:02:00,38.0,19.0,-100.00,East,85,0.0,0.0,46,-99.99,,,0.00,17.000000,,2013-05-26 14:02:00,
2013-05-26 07:11:00,38.0,19.0,-100.00,East,85,0.0,0.0,46,-99.99,,,0.00,17.000000,,2013-05-26 14:11:00,
2013-05-26 07:21:00,38.0,19.0,-100.00,East,85,0.0,0.0,46,-99.99,,,0.00,17.000000,,2013-05-26 14:21:00,
2013-05-26 07:32:00,38.0,19.0,-100.00,East,85,0.0,0.0,46,-99.99,,,0.00,17.000000,,2013-05-26 14:32:00,
2013-05-26 08:01:00,53.0,22.0,-100.00,SSE,152,0.0,4.0,29,0.00,,,0.00,102.000000,,2013-05-26 15:01:00,
2013-05-26 08:12:00,53.0,22.0,-100.00,SSE,152,0.0,4.0,29,0.00,,,0.00,102.000000,,2013-05-26 15:12:00,
2013-05-26 08:22:00,53.0,22.0,-100.00,SSE,152,0.0,4.0,29,0.00,,,0.00,102.000000,,2013-05-26 15:22:00,
2013-05-26 08:33:00,53.0,22.0,-100.00,SSE,152,0.0,4.0,29,0.00,,,0.00,102.000000,,2013-05-26 15:33:00,
2013-05-26 08:53:00,64.0,22.0,-100.00,South,177,0.0,5.0,20,0.00,,,0.00,479.000000,,2013-05-26 15:53:00,
2013-05-26 09:03:00,64.0,22.0,-100.00,South,177,0.0,5.0,20,0.00,,,0.00,479.000000,,2013-05-26 16:03:00,
2013-05-26 09:53:00,70.0,20.0,-100.00,South,185,2.0,9.0,15,-99.99,,,0.00,824.000000,,2013-05-26 16:53:00,
2013-05-26 10:02:00,70.0,20.0,-100.00,South,185,2.0,9.0,15,-99.99,,,0.00,824.000000,,2013-05-26 17:02:00,
2013-05-26 10:52:00,73.0,23.0,-100.00,NW,322,3.0,10.0,15,-99.99,,,-99.99,1035.000000,,2013-05-26 17:52:00,
2013-05-26 11:01:00,73.0,23.0,-100.00,NW,322,3.0,10.0,15,-99.99,,,-99.99,1035.000000,,2013-05-26 18:01:00,
2013-05-26 12:01:00,71.0,21.0,-100.00,West,265,4.0,11.0,15,-99.99,,,0.00,1186.000000,,2013-05-26 19:01:00,
2013-05-26 12:52:00,71.0,24.0,-100.00,West,261,5.0,12.0,17,-99.99,,,0.00,1263.000000,,2013-05-26 19:52:00,
2013-05-26 13:02:00,71.0,24.0,-100.00,West,261,5.0,12.0,17,-99.99,,,0.00,1263.000000,,2013-05-26 20:02:00,
2013-05-26 13:52:00,75.0,26.0,-100.00,SE,137,4.0,10.0,16,-99.99,,,0.00,1274.000000,,2013-05-26 20:52:00,
2013-05-26 14:01:00,75.0,26.0,-100.00,SE,137,4.0,10.0,16,-99.99,,,0.00,1274.000000,,2013-05-26 21:01:00,
2013-05-26 14:53:00,74.0,25.0,-100.00,NE,43,3.0,14.0,16,-99.99,,,0.00,1233.000000,,2013-05-26 21:53:00,
2013-05-26 15:02:00,74.0,25.0,-100.00,NE,43,3.0,14.0,16,-99.99,,,0.00,1233.000000,,2013-05-26 22:02:00,
2013-05-26 16:02:00,70.0,25.0,-100.00,South,173,3.0,12.0,18,-99.99,,,0.00,1114.000000,,2013-05-26 23:02:00,
2013-05-26 16:52:00,70.0,20.0,-100.00,East,85,2.0,11.0,15,-99.99,,,0.00,926.000000,,2013-05-26 23:52:00,
2013-05-26 17:02:00,70.0,20.0,-100.00,East,85,2.0,11.0,15,-99.99,,,0.00,926.000000,,2013-05-27 00:02:00,
2013-05-26 18:01:00,64.0,22.0,-100.00,NNW,345,2.0,11.0,20,-99.99,,,0.00,632.000000,,2013-05-27 01:01:00,
2013-05-26 18:22:00,64.0,22.0,-100.00,NNW,345,2.0,11.0,20,-99.99,,,0.00,632.000000,,2013-05-27 01:22:00,
2013-05-26 18:31:00,64.0,22.0,-100.00,NNW,345,2.0,11.0,20,-99.99,,,0.00,632.000000,,2013-05-27 01:31:00,
2013-05-26 19:01:00,57.0,20.0,-100.00,South,187,2.0,10.0,23,-99.99,,,0.00,59.000000,,2013-05-27 02:01:00,
2013-05-26 19:52:00,51.0,22.0,-100.00,South,187,0.0,10.0,32,0.00,,,0.00,31.000000,,2013-05-27 02:52:00,
2013-05-26 20:02:00,51.0,22.0,-100.00,South,187,0.0,10.0,32,0.00,,,0.00,31.000000,,2013-05-27 03:02:00,
2013-05-26 20:53:00,48.0,28.0,-100.00,SSW,193,0.0,5.0,46,0.00,,,0.00,2.000000,,2013-05-27 03:53:00,
2013-05-26 21:02:00,48.0,28.0,-100.00,SSW,193,0.0,5.0,46,0.00,,,0.00,2.000000,,2013-05-27 04:02:00,
2013-05-26 21:12:00,48.0,28.0,-100.00,SSW,193,0.0,5.0,46,0.00,,,0.00,2.000000,,2013-05-27 04:12:00,
2013-05-26 21:22:00,48.0,28.0,-100.00,SSW,193,0.0,5.0,46,0.00,,,0.00,2.000000,,2013-05-27 04:22:00,
2013-05-26 21:33:00,48.0,28.0,-100.00,SSW,193,0.0,5.0,46,0.00,,,0.00,2.000000,,2013-05-27 04:33:00,
2013-05-26 21:52:00,49.0,34.0,-100.00,SW,228,3.0,8.0,57,0.00,,,0.00,0.000000,,2013-05-27 04:52:00,
2013-05-26 22:02:00,49.0,34.0,-100.00,SW,228,3.0,8.0,57,0.00,,,0.00,0.000000,,2013-05-27 05:02:00,
2013-05-26 22:12:00,49.0,34.0,-100.00,SW,228,3.0,8.0,57,0.00,,,0.00,0.000000,,2013-05-27 05:12:00,
2013-05-26 22:22:00,49.0,34.0,-100.00,SW,228,3.0,8.0,57,0.00,,,0.00,0.000000,,2013-05-27 05:22:00,
2013-05-26 22:32:00,49.0,34.0,-100.00,SW,228,3.0,8.0,57,0.00,,,0.00,0.000000,,2013-05-27 05:32:00,
2013-05-26 22:52:00,48.0,31.0,-100.00,SSW,211,1.0,8.0,51,0.00,,,0.00,0.000000,,2013-05-27 05:52:00,
2013-05-26 23:01:00,48.0,31.0,-100.00,SSW,211,1.0,8.0,51,0.00,,,0.00,0.000000,,2013-05-27 06:01:00,
2013-05-26 23:11:00,48.0,31.0,-100.00,SSW,211,1.0,8.0,51,0.00,,,0.00,0.000000,,2013-05-27 06:11:00,
2013-05-26 23:21:00,48.0,31.0,-100.00,SSW,211,1.0,8.0,51,0.00,,,0.00,0.000000,,2013-05-27 06:21:00,
2013-05-26 23:31:00,48.0,31.0,-100.00,SSW,211,1.0,8.0,51,0.00,,,0.00,0.000000,,2013-05-27 06:31:00,